Dirección General De Aeronáutica Civil

Dirección Meteorológica de Chile - Servicios Climáticos

Informe General de Control de Calidad de la Estación

Listado de niveles de control de calidad para algunos parámetros
Estación Bulnes (360087)
Fecha de Revisión de los datos :

Elementos

Registros Niveles de Control Total
Nivel 0 Nivel 1 Nivel 2 Nivel 3 Errores Porcentaje
01 Temperatura del Aire Seco 119.085 0 . 351 0.29 % 0 . 0 . 351 0.29 %
02 Temperatura de Rocío 119.087 0 . 0 . 0 . 0 . 0 0.00 %
03 Humedad Relativa del Aire 119.100 0 . 0 . 0 . 0 . 0 0.00 %
04 Temperatura Máxima PM 944 0 . 0 . 0 . 0 . 0 0.00 %
05 Temperatura Mínima AM 967 0 . 0 . 1 0.10 % 0 . 1 0.10 %
06 Agua Caida, Acumulada 6 Horas 21.275 0 . 0 . 0 . 0 . 0 0.00 %
07 Presión Atm. a Nivel de Estación (QFE) 118.658 0 . 0 . 0 . 0 . 0 0.00 %
08 Presión Atm. a Nivel Medio del Mar (QFF) 22.658 0 . 0 . 0 . 0 . 0 0.00 %
09 Presión Atm. Estándar OACI (QNH) 22.658 0 . 0 . 0 . 0 . 0 0.00 %

Totales

544.432 . 0.0000 % . 0.0645 % . 0.0002 % . 0.0000 % 352 0.0647 %

Detalle de Errores Encontrados

Nivel Fecha del Dato Descripción Información Error Fecha Ingreso
1 2014-07-30 10:00:00 Ts debe ser mayor o igual a Td Ts=8.9 - Td=9.0 2023-11-19 14:51:00
1 2014-07-30 11:00:00 Ts debe ser mayor o igual a Td Ts=8.9 - Td=9.0 2023-11-19 14:51:00
1 2014-08-01 07:00:00 Ts debe ser mayor o igual a Td Ts=13.1 - Td=13.2 2023-11-19 14:51:00
1 2014-08-01 09:00:00 Ts debe ser mayor o igual a Td Ts=12.5 - Td=12.6 2023-11-19 14:51:00
1 2014-08-01 10:00:00 Ts debe ser mayor o igual a Td Ts=12.4 - Td=12.5 2023-11-19 14:51:00
1 2014-08-01 12:00:00 Ts debe ser mayor o igual a Td Ts=12.7 - Td=12.8 2023-11-19 14:51:00
1 2014-08-06 11:00:00 Ts debe ser mayor o igual a Td Ts=6.9 - Td=7.0 2023-11-19 14:51:00
1 2014-08-18 12:00:00 Ts debe ser mayor o igual a Td Ts=8.3 - Td=8.4 2023-11-19 14:52:00
1 2014-08-19 15:00:00 Ts debe ser mayor o igual a Td Ts=9.4 - Td=9.5 2023-11-19 14:52:00
1 2014-08-25 10:00:00 Ts debe ser mayor o igual a Td Ts=6.6 - Td=6.7 2023-11-19 14:52:00
1 2014-08-25 11:00:00 Ts debe ser mayor o igual a Td Ts=6.7 - Td=6.8 2023-11-19 14:52:00
1 2014-08-25 12:00:00 Ts debe ser mayor o igual a Td Ts=8.3 - Td=8.4 2023-11-19 14:52:00
1 2014-08-28 13:00:00 Ts debe ser mayor o igual a Td Ts=8.8 - Td=8.9 2023-11-19 14:52:00
1 2014-08-31 14:00:00 Ts debe ser mayor o igual a Td Ts=10.3 - Td=10.4 2023-11-19 14:52:00
1 2014-09-04 09:00:00 Ts debe ser mayor o igual a Td Ts=7.7 - Td=7.8 2023-11-19 14:52:00
1 2015-05-10 13:00:00 Ts debe ser mayor o igual a Td Ts=10.7 - Td=10.8 2023-11-19 14:56:00
1 2015-05-22 05:00:00 Ts debe ser mayor o igual a Td Ts=9.0 - Td=9.1 2023-11-19 14:56:00
1 2015-05-22 12:00:00 Ts debe ser mayor o igual a Td Ts=8.6 - Td=8.7 2023-11-19 14:56:00
1 2015-05-30 06:00:00 Ts debe ser mayor o igual a Td Ts=5.7 - Td=5.8 2023-11-19 14:56:00
1 2015-05-31 08:00:00 Ts debe ser mayor o igual a Td Ts=7.6 - Td=7.7 2023-11-19 14:56:00
1 2015-06-04 00:00:00 Ts debe ser mayor o igual a Td Ts=11.5 - Td=11.6 2023-11-19 14:56:00
1 2015-06-04 12:00:00 Ts debe ser mayor o igual a Td Ts=10.8 - Td=10.9 2023-11-19 14:56:00
1 2015-06-08 14:00:00 Ts debe ser mayor o igual a Td Ts=10.6 - Td=10.7 2023-11-19 14:56:00
1 2015-06-08 22:00:00 Ts debe ser mayor o igual a Td Ts=10.3 - Td=10.4 2023-11-19 14:56:00
1 2015-06-09 05:00:00 Ts debe ser mayor o igual a Td Ts=9.0 - Td=9.1 2023-11-19 14:56:00
1 2015-06-09 09:00:00 Ts debe ser mayor o igual a Td Ts=8.9 - Td=9.0 2023-11-19 14:56:00
1 2015-06-09 12:00:00 Ts debe ser mayor o igual a Td Ts=8.1 - Td=8.2 2023-11-19 14:56:00
1 2015-06-14 08:00:00 Ts debe ser mayor o igual a Td Ts=7.1 - Td=7.2 2023-11-19 14:56:00
1 2015-06-26 12:00:00 Ts debe ser mayor o igual a Td Ts=9.2 - Td=9.3 2023-11-19 14:57:00
1 2015-06-26 13:00:00 Ts debe ser mayor o igual a Td Ts=10.4 - Td=10.5 2023-11-19 14:57:00
1 2015-07-09 12:00:00 Ts debe ser mayor o igual a Td Ts=9.0 - Td=9.1 2023-11-19 14:57:00
1 2015-07-11 20:00:00 Ts debe ser mayor o igual a Td Ts=10.7 - Td=10.8 2023-11-19 14:57:00
1 2015-07-11 23:00:00 Ts debe ser mayor o igual a Td Ts=13.7 - Td=13.8 2023-11-19 14:57:00
1 2015-07-23 11:00:00 Ts debe ser mayor o igual a Td Ts=7.3 - Td=7.4 2023-11-19 14:57:00
1 2015-07-23 13:00:00 Ts debe ser mayor o igual a Td Ts=7.5 - Td=7.6 2023-11-19 14:57:00
1 2015-07-24 01:00:00 Ts debe ser mayor o igual a Td Ts=7.4 - Td=7.5 2023-11-19 14:57:00
1 2015-07-24 02:00:00 Ts debe ser mayor o igual a Td Ts=7.4 - Td=7.5 2023-11-19 14:57:00
1 2015-07-24 11:00:00 Ts debe ser mayor o igual a Td Ts=5.6 - Td=5.7 2023-11-19 14:57:00
1 2015-07-24 15:00:00 Ts debe ser mayor o igual a Td Ts=7.6 - Td=7.7 2023-11-19 14:57:00
1 2015-07-24 18:00:00 Ts debe ser mayor o igual a Td Ts=10.5 - Td=10.6 2023-11-19 14:57:00
1 2015-07-25 04:00:00 Ts debe ser mayor o igual a Td Ts=7.1 - Td=7.2 2023-11-19 14:57:00
1 2015-07-25 05:00:00 Ts debe ser mayor o igual a Td Ts=7.2 - Td=7.3 2023-11-19 14:57:00
1 2015-07-25 08:00:00 Ts debe ser mayor o igual a Td Ts=7.1 - Td=7.2 2023-11-19 14:57:00
1 2015-07-27 12:00:00 Ts debe ser mayor o igual a Td Ts=11.8 - Td=11.9 2023-11-19 14:57:00
1 2015-07-28 11:00:00 Ts debe ser mayor o igual a Td Ts=8.7 - Td=8.8 2023-11-19 14:57:00
1 2015-07-28 13:00:00 Ts debe ser mayor o igual a Td Ts=10.5 - Td=10.6 2023-11-19 14:57:00
1 2015-07-29 06:00:00 Ts debe ser mayor o igual a Td Ts=7.0 - Td=7.1 2023-11-19 14:57:00
1 2015-07-29 07:00:00 Ts debe ser mayor o igual a Td Ts=7.2 - Td=7.3 2023-11-19 14:57:00
1 2015-07-29 08:00:00 Ts debe ser mayor o igual a Td Ts=7.4 - Td=7.5 2023-11-19 14:57:00
1 2015-07-29 09:00:00 Ts debe ser mayor o igual a Td Ts=7.4 - Td=7.5 2023-11-19 14:57:00
1 2015-07-29 12:00:00 Ts debe ser mayor o igual a Td Ts=7.1 - Td=7.2 2023-11-19 14:57:00
1 2015-07-31 03:00:00 Ts debe ser mayor o igual a Td Ts=9.3 - Td=9.4 2023-11-19 14:57:00
1 2015-07-31 04:00:00 Ts debe ser mayor o igual a Td Ts=9.1 - Td=9.2 2023-11-19 14:57:00
1 2015-07-31 10:00:00 Ts debe ser mayor o igual a Td Ts=8.2 - Td=8.3 2023-11-19 14:57:00
1 2015-07-31 11:00:00 Ts debe ser mayor o igual a Td Ts=8.1 - Td=8.2 2023-11-19 14:57:00
1 2015-07-31 12:00:00 Ts debe ser mayor o igual a Td Ts=8.8 - Td=8.9 2023-11-19 14:57:00
1 2015-08-03 15:00:00 Ts debe ser mayor o igual a Td Ts=7.7 - Td=7.8 2023-11-19 14:57:00
1 2015-08-04 14:00:00 Ts debe ser mayor o igual a Td Ts=7.8 - Td=7.9 2023-11-19 14:57:00
1 2015-08-06 11:00:00 Ts debe ser mayor o igual a Td Ts=10.4 - Td=10.5 2023-11-19 14:57:00
1 2015-08-06 12:00:00 Ts debe ser mayor o igual a Td Ts=10.5 - Td=10.6 2023-11-19 14:57:00
1 2015-08-07 11:00:00 Ts debe ser mayor o igual a Td Ts=4.8 - Td=4.9 2023-11-19 14:57:00
1 2015-08-23 07:00:00 Ts debe ser mayor o igual a Td Ts=7.0 - Td=7.1 2023-11-19 14:57:00
1 2015-08-23 09:00:00 Ts debe ser mayor o igual a Td Ts=6.9 - Td=7.0 2023-11-19 14:57:00
1 2015-08-29 11:00:00 Ts debe ser mayor o igual a Td Ts=13.0 - Td=13.1 2023-11-19 14:57:00
1 2015-08-30 06:00:00 Ts debe ser mayor o igual a Td Ts=8.7 - Td=8.8 2023-11-19 14:58:00
1 2015-08-30 08:00:00 Ts debe ser mayor o igual a Td Ts=8.5 - Td=8.6 2023-11-19 14:58:00
1 2015-09-28 13:00:00 Ts debe ser mayor o igual a Td Ts=11.7 - Td=11.8 2023-11-19 14:58:00
1 2016-05-14 14:00:00 Ts debe ser mayor o igual a Td Ts=10.8 - Td=10.9 2023-11-19 15:02:00
1 2016-05-18 18:00:00 Ts debe ser mayor o igual a Td Ts=11.6 - Td=11.7 2023-11-19 15:02:00
1 2016-05-20 06:00:00 Ts debe ser mayor o igual a Td Ts=11.5 - Td=11.6 2023-11-19 15:03:00
1 2016-05-26 14:00:00 Ts debe ser mayor o igual a Td Ts=11.6 - Td=11.7 2023-11-19 15:03:00
1 2016-05-27 15:00:00 Ts debe ser mayor o igual a Td Ts=8.7 - Td=8.8 2023-11-19 15:03:00
1 2016-05-27 17:00:00 Ts debe ser mayor o igual a Td Ts=9.2 - Td=9.3 2023-11-19 15:03:00
1 2016-05-28 08:00:00 Ts debe ser mayor o igual a Td Ts=9.4 - Td=9.5 2023-11-19 15:03:00
1 2016-05-28 10:00:00 Ts debe ser mayor o igual a Td Ts=9.4 - Td=9.5 2023-11-19 15:03:00
1 2016-05-29 13:00:00 Ts debe ser mayor o igual a Td Ts=10.6 - Td=10.7 2023-11-19 15:03:00
1 2016-05-29 14:00:00 Ts debe ser mayor o igual a Td Ts=11.6 - Td=11.7 2023-11-19 15:03:00
1 2016-05-30 03:00:00 Ts debe ser mayor o igual a Td Ts=11.6 - Td=11.7 2023-11-19 15:03:00
1 2016-05-31 13:00:00 Ts debe ser mayor o igual a Td Ts=9.1 - Td=9.2 2023-11-19 15:03:00
1 2016-06-01 12:00:00 Ts debe ser mayor o igual a Td Ts=8.5 - Td=8.6 2023-11-19 15:03:00
1 2016-06-03 08:00:00 Ts debe ser mayor o igual a Td Ts=7.5 - Td=7.6 2023-11-19 15:03:00
1 2016-06-03 09:00:00 Ts debe ser mayor o igual a Td Ts=7.4 - Td=7.5 2023-11-19 15:03:00
1 2016-06-07 14:00:00 Ts debe ser mayor o igual a Td Ts=8.7 - Td=8.8 2023-11-19 15:03:00
1 2016-06-13 14:00:00 Ts debe ser mayor o igual a Td Ts=5.7 - Td=5.8 2023-11-19 15:03:00
1 2016-06-13 17:00:00 Ts debe ser mayor o igual a Td Ts=8.3 - Td=8.4 2023-11-19 15:03:00
1 2016-06-14 13:00:00 Ts debe ser mayor o igual a Td Ts=7.5 - Td=7.6 2023-11-19 15:03:00
1 2016-06-15 16:00:00 Ts debe ser mayor o igual a Td Ts=7.8 - Td=7.9 2023-11-19 15:03:00
1 2016-06-20 13:00:00 Ts debe ser mayor o igual a Td Ts=6.9 - Td=7.0 2023-11-19 15:04:00
1 2016-06-22 23:00:00 Ts debe ser mayor o igual a Td Ts=7.1 - Td=7.2 2023-11-19 15:04:00
1 2016-06-23 00:00:00 Ts debe ser mayor o igual a Td Ts=6.9 - Td=7.0 2023-11-19 15:04:00
1 2016-06-28 21:00:00 Ts debe ser mayor o igual a Td Ts=7.0 - Td=7.1 2023-11-19 15:04:00
1 2016-06-28 22:00:00 Ts debe ser mayor o igual a Td Ts=5.7 - Td=5.8 2023-11-19 15:04:00
1 2016-06-29 07:00:00 Ts debe ser mayor o igual a Td Ts=5.7 - Td=5.8 2023-11-19 15:04:00
1 2016-06-29 13:00:00 Ts debe ser mayor o igual a Td Ts=7.3 - Td=7.4 2023-11-19 15:04:00
1 2016-06-30 00:00:00 Ts debe ser mayor o igual a Td Ts=8.9 - Td=9.0 2023-11-19 15:04:00
1 2016-06-30 02:00:00 Ts debe ser mayor o igual a Td Ts=7.8 - Td=7.9 2023-11-19 15:04:00
1 2016-07-08 15:00:00 Ts debe ser mayor o igual a Td Ts=7.5 - Td=7.6 2023-11-19 15:04:00
1 2016-07-08 17:00:00 Ts debe ser mayor o igual a Td Ts=8.4 - Td=8.5 2023-11-19 15:04:00
1 2016-07-08 18:00:00 Ts debe ser mayor o igual a Td Ts=8.7 - Td=8.8 2023-11-19 15:04:00
1 2016-07-12 15:00:00 Ts debe ser mayor o igual a Td Ts=7.3 - Td=7.4 2023-11-19 15:04:00
1 2016-07-18 14:00:00 Ts debe ser mayor o igual a Td Ts=8.1 - Td=8.2 2023-11-19 15:04:00
1 2016-07-21 12:00:00 Ts debe ser mayor o igual a Td Ts=9.2 - Td=9.3 2023-11-19 15:04:00
1 2016-07-24 10:00:00 Ts debe ser mayor o igual a Td Ts=11.7 - Td=11.8 2023-11-19 15:04:00
1 2016-07-24 14:00:00 Ts debe ser mayor o igual a Td Ts=12.6 - Td=12.7 2023-11-19 15:04:00
1 2016-07-24 21:00:00 Ts debe ser mayor o igual a Td Ts=13.1 - Td=13.2 2023-11-19 15:04:00
1 2016-07-24 22:00:00 Ts debe ser mayor o igual a Td Ts=13.0 - Td=13.1 2023-11-19 15:04:00
1 2016-07-25 02:00:00 Ts debe ser mayor o igual a Td Ts=10.5 - Td=10.6 2023-11-19 15:04:00
1 2016-07-25 03:00:00 Ts debe ser mayor o igual a Td Ts=10.6 - Td=10.7 2023-11-19 15:04:00
1 2016-07-25 08:00:00 Ts debe ser mayor o igual a Td Ts=8.6 - Td=8.7 2023-11-19 15:04:00
1 2016-07-25 13:00:00 Ts debe ser mayor o igual a Td Ts=8.1 - Td=8.2 2023-11-19 15:04:00
1 2016-07-29 15:00:00 Ts debe ser mayor o igual a Td Ts=11.6 - Td=11.7 2023-11-19 15:04:00
1 2016-07-31 17:00:00 Ts debe ser mayor o igual a Td Ts=9.4 - Td=9.5 2023-11-19 15:05:00
1 2016-08-01 07:00:00 Ts debe ser mayor o igual a Td Ts=4.8 - Td=4.9 2023-11-19 15:05:00
1 2016-08-01 14:00:00 Ts debe ser mayor o igual a Td Ts=9.1 - Td=9.2 2023-11-19 15:05:00
1 2016-08-03 13:00:00 Ts debe ser mayor o igual a Td Ts=7.5 - Td=7.6 2023-11-19 15:05:00
1 2016-08-03 14:00:00 Ts debe ser mayor o igual a Td Ts=8.1 - Td=8.2 2023-11-19 15:05:00
1 2016-08-03 15:00:00 Ts debe ser mayor o igual a Td Ts=9.0 - Td=9.1 2023-11-19 15:05:00
1 2016-08-04 10:00:00 Ts debe ser mayor o igual a Td Ts=7.5 - Td=7.6 2023-11-19 15:05:00
1 2016-08-04 13:00:00 Ts debe ser mayor o igual a Td Ts=7.8 - Td=7.9 2023-11-19 15:05:00
1 2016-08-05 15:00:00 Ts debe ser mayor o igual a Td Ts=7.0 - Td=7.1 2023-11-19 15:05:00
1 2016-08-05 16:00:00 Ts debe ser mayor o igual a Td Ts=7.7 - Td=7.8 2023-11-19 15:05:00
1 2016-08-05 17:00:00 Ts debe ser mayor o igual a Td Ts=9.0 - Td=9.1 2023-11-19 15:05:00
1 2017-08-11 14:00:00 Ts debe ser mayor o igual a Td Ts=8.8 - Td=8.9 2023-11-19 15:13:00
1 2018-04-27 07:00:00 Ts debe ser mayor o igual a Td Ts=8.1 - Td=8.2 2023-11-19 15:17:00
1 2018-04-27 14:00:00 Ts debe ser mayor o igual a Td Ts=8.5 - Td=8.6 2023-11-19 15:17:00
1 2018-05-05 14:00:00 Ts debe ser mayor o igual a Td Ts=8.5 - Td=8.6 2023-11-19 15:17:00
1 2018-05-07 12:00:00 Ts debe ser mayor o igual a Td Ts=13.3 - Td=13.4 2023-11-19 15:17:00
1 2018-05-08 04:00:00 Ts debe ser mayor o igual a Td Ts=11.4 - Td=11.5 2023-11-19 15:17:00
1 2018-05-09 06:00:00 Ts debe ser mayor o igual a Td Ts=5.6 - Td=5.7 2023-11-19 15:17:00
1 2018-05-09 09:00:00 Ts debe ser mayor o igual a Td Ts=7.1 - Td=7.2 2023-11-19 15:17:00
1 2018-05-09 12:00:00 Ts debe ser mayor o igual a Td Ts=8.1 - Td=8.2 2023-11-19 15:17:00
1 2018-05-11 11:00:00 Ts debe ser mayor o igual a Td Ts=8.1 - Td=8.2 2023-11-19 15:17:00
1 2018-05-12 14:00:00 Ts debe ser mayor o igual a Td Ts=7.7 - Td=7.8 2023-11-19 15:17:00
1 2018-05-14 09:00:00 Ts debe ser mayor o igual a Td Ts=8.5 - Td=8.6 2023-11-19 15:17:00
1 2018-05-14 10:00:00 Ts debe ser mayor o igual a Td Ts=7.6 - Td=7.7 2023-11-19 15:17:00
1 2018-05-14 14:00:00 Ts debe ser mayor o igual a Td Ts=10.7 - Td=10.8 2023-11-19 15:17:00
1 2018-05-17 02:00:00 Ts debe ser mayor o igual a Td Ts=9.2 - Td=9.3 2023-11-19 15:17:00
1 2018-05-17 13:00:00 Ts debe ser mayor o igual a Td Ts=10.5 - Td=10.6 2023-11-19 15:17:00
1 2018-05-18 04:00:00 Ts debe ser mayor o igual a Td Ts=7.4 - Td=7.5 2023-11-19 15:17:00
1 2018-05-18 08:00:00 Ts debe ser mayor o igual a Td Ts=8.2 - Td=8.3 2023-11-19 15:17:00
1 2018-05-18 09:00:00 Ts debe ser mayor o igual a Td Ts=8.1 - Td=8.2 2023-11-19 15:17:00
1 2018-05-18 11:00:00 Ts debe ser mayor o igual a Td Ts=7.0 - Td=7.1 2023-11-19 15:17:00
1 2018-05-18 12:00:00 Ts debe ser mayor o igual a Td Ts=7.4 - Td=7.5 2023-11-19 15:17:00
1 2018-05-18 13:00:00 Ts debe ser mayor o igual a Td Ts=8.3 - Td=8.4 2023-11-19 15:17:00
1 2018-05-18 16:00:00 Ts debe ser mayor o igual a Td Ts=11.6 - Td=11.7 2023-11-19 15:17:00
1 2018-05-20 12:00:00 Ts debe ser mayor o igual a Td Ts=7.2 - Td=7.3 2023-11-19 15:17:00
1 2018-05-26 03:00:00 Ts debe ser mayor o igual a Td Ts=5.7 - Td=5.8 2023-11-19 15:18:00
1 2018-05-28 15:00:00 Ts debe ser mayor o igual a Td Ts=10.6 - Td=10.7 2023-11-19 15:18:00
1 2018-05-29 06:00:00 Ts debe ser mayor o igual a Td Ts=11.6 - Td=11.7 2023-11-19 15:18:00
1 2018-05-29 09:00:00 Ts debe ser mayor o igual a Td Ts=11.5 - Td=11.6 2023-11-19 15:18:00
1 2018-05-29 12:00:00 Ts debe ser mayor o igual a Td Ts=9.1 - Td=9.2 2023-11-19 15:18:00
1 2018-06-05 17:00:00 Ts debe ser mayor o igual a Td Ts=5.6 - Td=5.7 2023-11-19 15:18:00
1 2018-06-08 15:00:00 Ts debe ser mayor o igual a Td Ts=9.2 - Td=9.3 2023-11-19 15:18:00
1 2018-06-09 05:00:00 Ts debe ser mayor o igual a Td Ts=8.8 - Td=8.9 2023-11-19 15:18:00
1 2018-06-17 10:00:00 Ts debe ser mayor o igual a Td Ts=10.4 - Td=10.5 2023-11-19 15:18:00
1 2018-06-19 03:00:00 Ts debe ser mayor o igual a Td Ts=9.1 - Td=9.2 2023-11-19 15:18:00
1 2018-06-19 04:00:00 Ts debe ser mayor o igual a Td Ts=8.8 - Td=8.9 2023-11-19 15:18:00
1 2018-06-19 05:00:00 Ts debe ser mayor o igual a Td Ts=8.4 - Td=8.5 2023-11-19 15:18:00
1 2018-06-19 06:00:00 Ts debe ser mayor o igual a Td Ts=7.8 - Td=7.9 2023-11-19 15:18:00
1 2018-06-19 07:00:00 Ts debe ser mayor o igual a Td Ts=7.3 - Td=7.4 2023-11-19 15:18:00
1 2018-06-19 08:00:00 Ts debe ser mayor o igual a Td Ts=7.3 - Td=7.4 2023-11-19 15:18:00
1 2018-06-19 14:00:00 Ts debe ser mayor o igual a Td Ts=7.6 - Td=7.7 2023-11-19 15:18:00
1 2018-06-19 17:00:00 Ts debe ser mayor o igual a Td Ts=10.4 - Td=10.5 2023-11-19 15:18:00
1 2018-06-20 14:00:00 Ts debe ser mayor o igual a Td Ts=7.1 - Td=7.2 2023-11-19 15:18:00
1 2018-06-27 06:00:00 Ts debe ser mayor o igual a Td Ts=12.3 - Td=12.4 2023-11-19 15:18:00
1 2018-06-27 08:00:00 Ts debe ser mayor o igual a Td Ts=12.2 - Td=12.3 2023-11-19 15:18:00
1 2018-06-27 16:00:00 Ts debe ser mayor o igual a Td Ts=12.9 - Td=13.0 2023-11-19 15:18:00
1 2018-06-27 17:00:00 Ts debe ser mayor o igual a Td Ts=13.7 - Td=13.8 2023-11-19 15:18:00
1 2018-06-27 20:00:00 Ts debe ser mayor o igual a Td Ts=12.5 - Td=12.6 2023-11-19 15:18:00
1 2018-06-28 06:00:00 Ts debe ser mayor o igual a Td Ts=8.2 - Td=8.3 2023-11-19 15:18:00
1 2018-06-28 13:00:00 Ts debe ser mayor o igual a Td Ts=7.7 - Td=7.8 2023-11-19 15:18:00
1 2018-06-28 15:00:00 Ts debe ser mayor o igual a Td Ts=8.7 - Td=8.8 2023-11-19 15:18:00
1 2018-06-30 01:00:00 Ts debe ser mayor o igual a Td Ts=9.4 - Td=9.5 2023-11-19 15:18:00
1 2018-06-30 04:00:00 Ts debe ser mayor o igual a Td Ts=8.4 - Td=8.5 2023-11-19 15:18:00
1 2018-06-30 06:00:00 Ts debe ser mayor o igual a Td Ts=8.1 - Td=8.2 2023-11-19 15:18:00
1 2018-07-01 03:00:00 Ts debe ser mayor o igual a Td Ts=7.0 - Td=7.1 2023-11-19 15:18:00
1 2018-07-01 07:00:00 Ts debe ser mayor o igual a Td Ts=8.9 - Td=9.0 2023-11-19 15:18:00
1 2018-07-01 10:00:00 Ts debe ser mayor o igual a Td Ts=9.2 - Td=9.3 2023-11-19 15:18:00
1 2018-07-01 11:00:00 Ts debe ser mayor o igual a Td Ts=9.3 - Td=9.4 2023-11-19 15:18:00
1 2018-07-03 03:00:00 Ts debe ser mayor o igual a Td Ts=9.3 - Td=9.4 2023-11-19 15:18:00
1 2018-07-05 03:00:00 Ts debe ser mayor o igual a Td Ts=11.4 - Td=11.5 2023-11-19 15:18:00
1 2018-07-10 17:00:00 Ts debe ser mayor o igual a Td Ts=8.2 - Td=8.3 2023-11-19 15:18:00
1 2018-07-10 21:00:00 Ts debe ser mayor o igual a Td Ts=7.8 - Td=7.9 2023-11-19 15:18:00
1 2018-07-12 15:00:00 Ts debe ser mayor o igual a Td Ts=7.6 - Td=7.7 2023-11-19 15:18:00
1 2018-07-12 16:00:00 Ts debe ser mayor o igual a Td Ts=9.4 - Td=9.5 2023-11-19 15:18:00
1 2018-07-13 02:00:00 Ts debe ser mayor o igual a Td Ts=8.9 - Td=9.0 2023-11-19 15:18:00
1 2018-07-14 13:00:00 Ts debe ser mayor o igual a Td Ts=10.4 - Td=10.5 2023-11-19 15:18:00
1 2018-07-15 16:00:00 Ts debe ser mayor o igual a Td Ts=7.2 - Td=7.3 2023-11-19 15:18:00
1 2018-07-27 22:00:00 Ts debe ser mayor o igual a Td Ts=8.1 - Td=8.2 2023-11-19 15:18:00
1 2018-07-28 18:00:00 Ts debe ser mayor o igual a Td Ts=8.6 - Td=8.7 2023-11-19 15:18:00
1 2018-07-30 11:00:00 Ts debe ser mayor o igual a Td Ts=4.8 - Td=4.9 2023-11-19 15:18:00
1 2018-08-04 15:00:00 Ts debe ser mayor o igual a Td Ts=5.6 - Td=5.7 2023-11-19 15:19:00
1 2018-08-06 12:00:00 Ts debe ser mayor o igual a Td Ts=8.2 - Td=8.3 2023-11-19 15:19:00
1 2018-08-06 13:00:00 Ts debe ser mayor o igual a Td Ts=8.7 - Td=8.8 2023-11-19 15:19:00
1 2018-08-07 01:00:00 Ts debe ser mayor o igual a Td Ts=10.4 - Td=10.5 2023-11-19 15:19:00
1 2018-08-11 14:00:00 Ts debe ser mayor o igual a Td Ts=7.2 - Td=7.3 2023-11-19 15:19:00
1 2018-08-11 15:00:00 Ts debe ser mayor o igual a Td Ts=9.0 - Td=9.1 2023-11-19 15:19:00
1 2018-08-13 13:00:00 Ts debe ser mayor o igual a Td Ts=8.6 - Td=8.7 2023-11-19 15:19:00
1 2018-08-23 11:00:00 Ts debe ser mayor o igual a Td Ts=5.6 - Td=5.7 2023-11-19 15:19:00
1 2018-08-27 14:00:00 Ts debe ser mayor o igual a Td Ts=7.8 - Td=7.9 2023-11-19 15:19:00
1 2018-08-31 12:00:00 Ts debe ser mayor o igual a Td Ts=8.1 - Td=8.2 2023-11-19 15:19:00
1 2018-09-06 14:00:00 Ts debe ser mayor o igual a Td Ts=8.8 - Td=8.9 2023-11-19 15:19:00
1 2018-09-18 00:00:00 Ts debe ser mayor o igual a Td Ts=12.5 - Td=12.6 2023-11-19 15:19:00
1 2018-09-18 02:00:00 Ts debe ser mayor o igual a Td Ts=12.2 - Td=12.3 2023-11-19 15:19:00
1 2018-09-18 08:00:00 Ts debe ser mayor o igual a Td Ts=9.1 - Td=9.2 2023-11-19 15:19:00
1 2018-09-18 11:00:00 Ts debe ser mayor o igual a Td Ts=9.2 - Td=9.3 2023-11-19 15:19:00
1 2018-09-19 11:00:00 Ts debe ser mayor o igual a Td Ts=7.2 - Td=7.3 2023-11-19 15:19:00
1 2018-09-19 12:00:00 Ts debe ser mayor o igual a Td Ts=8.5 - Td=8.6 2023-11-19 15:19:00
1 2018-10-18 09:00:00 Ts debe ser mayor o igual a Td Ts=7.8 - Td=7.9 2023-11-19 15:20:00
1 2018-12-14 08:00:00 Ts debe ser mayor o igual a Td Ts=5.6 - Td=5.7 2023-11-19 15:20:00
1 2018-12-14 11:00:00 Ts debe ser mayor o igual a Td Ts=8.2 - Td=8.3 2023-11-19 15:20:00
1 2019-05-04 12:00:00 Ts debe ser mayor o igual a Td Ts=12.4 - Td=12.5 2023-11-19 15:22:00
1 2019-05-10 13:00:00 Ts debe ser mayor o igual a Td Ts=7.6 - Td=7.7 2023-11-19 15:22:00
1 2019-05-25 14:00:00 Ts debe ser mayor o igual a Td Ts=6.9 - Td=7.0 2023-11-19 15:22:00
1 2019-05-27 01:00:00 Ts debe ser mayor o igual a Td Ts=11.4 - Td=11.5 2023-11-19 15:22:00
1 2019-05-27 12:00:00 Ts debe ser mayor o igual a Td Ts=10.6 - Td=10.7 2023-11-19 15:22:00
1 2019-05-28 12:00:00 Ts debe ser mayor o igual a Td Ts=7.6 - Td=7.7 2023-11-19 15:23:00
1 2019-06-04 02:00:00 Ts debe ser mayor o igual a Td Ts=10.8 - Td=10.9 2023-11-19 15:23:00
1 2019-06-04 14:00:00 Ts debe ser mayor o igual a Td Ts=11.6 - Td=11.7 2023-11-19 15:23:00
1 2019-06-04 15:00:00 Ts debe ser mayor o igual a Td Ts=12.4 - Td=12.5 2023-11-19 15:23:00
1 2019-06-05 03:00:00 Ts debe ser mayor o igual a Td Ts=12.6 - Td=12.7 2023-11-19 15:23:00
1 2019-06-05 11:00:00 Ts debe ser mayor o igual a Td Ts=11.6 - Td=11.7 2023-11-19 15:23:00
1 2019-06-05 14:00:00 Ts debe ser mayor o igual a Td Ts=12.9 - Td=13.0 2023-11-19 15:23:00
1 2019-06-09 07:00:00 Ts debe ser mayor o igual a Td Ts=7.8 - Td=7.9 2023-11-19 15:23:00
1 2019-06-09 15:00:00 Ts debe ser mayor o igual a Td Ts=10.6 - Td=10.7 2023-11-19 15:23:00
1 2019-06-14 13:00:00 Ts debe ser mayor o igual a Td Ts=7.3 - Td=7.4 2023-11-19 15:23:00
1 2019-06-15 02:00:00 Ts debe ser mayor o igual a Td Ts=4.8 - Td=4.9 2023-11-19 15:23:00
1 2019-06-16 15:00:00 Ts debe ser mayor o igual a Td Ts=4.8 - Td=4.9 2023-11-19 15:23:00
1 2019-06-17 20:00:00 Ts debe ser mayor o igual a Td Ts=7.4 - Td=7.5 2023-11-19 15:23:00
1 2019-06-21 14:00:00 Ts debe ser mayor o igual a Td Ts=8.7 - Td=8.8 2023-11-19 15:23:00
1 2019-06-22 14:00:00 Ts debe ser mayor o igual a Td Ts=7.0 - Td=7.1 2023-11-19 15:23:00
1 2019-06-23 07:00:00 Ts debe ser mayor o igual a Td Ts=8.1 - Td=8.2 2023-11-19 15:23:00
1 2019-06-23 09:00:00 Ts debe ser mayor o igual a Td Ts=8.2 - Td=8.3 2023-11-19 15:23:00
1 2019-06-23 16:00:00 Ts debe ser mayor o igual a Td Ts=11.4 - Td=11.5 2023-11-19 15:23:00
1 2019-06-26 22:00:00 Ts debe ser mayor o igual a Td Ts=7.8 - Td=7.9 2023-11-19 15:23:00
1 2019-06-27 03:00:00 Ts debe ser mayor o igual a Td Ts=8.4 - Td=8.5 2023-11-19 15:23:00
1 2019-06-27 04:00:00 Ts debe ser mayor o igual a Td Ts=8.4 - Td=8.5 2023-11-19 15:23:00
1 2019-06-27 07:00:00 Ts debe ser mayor o igual a Td Ts=8.4 - Td=8.5 2023-11-19 15:23:00
1 2019-06-27 08:00:00 Ts debe ser mayor o igual a Td Ts=8.2 - Td=8.3 2023-11-19 15:23:00
1 2019-06-27 12:00:00 Ts debe ser mayor o igual a Td Ts=8.3 - Td=8.4 2023-11-19 15:23:00
1 2019-06-28 00:00:00 Ts debe ser mayor o igual a Td Ts=10.7 - Td=10.8 2023-11-19 15:23:00
1 2019-06-28 22:00:00 Ts debe ser mayor o igual a Td Ts=8.8 - Td=8.9 2023-11-19 15:23:00
1 2019-06-29 02:00:00 Ts debe ser mayor o igual a Td Ts=8.9 - Td=9.0 2023-11-19 15:23:00
1 2019-07-04 06:00:00 Ts debe ser mayor o igual a Td Ts=7.1 - Td=7.2 2023-11-19 15:23:00
1 2019-07-10 12:00:00 Ts debe ser mayor o igual a Td Ts=7.6 - Td=7.7 2023-11-19 15:23:00
1 2019-07-10 15:00:00 Ts debe ser mayor o igual a Td Ts=9.2 - Td=9.3 2023-11-19 15:23:00
1 2019-07-11 02:00:00 Ts debe ser mayor o igual a Td Ts=8.9 - Td=9.0 2023-11-19 15:23:00
1 2019-07-11 09:00:00 Ts debe ser mayor o igual a Td Ts=9.0 - Td=9.1 2023-11-19 15:23:00
1 2019-07-11 12:00:00 Ts debe ser mayor o igual a Td Ts=8.6 - Td=8.7 2023-11-19 15:23:00
1 2019-07-13 13:00:00 Ts debe ser mayor o igual a Td Ts=8.5 - Td=8.6 2023-11-19 15:23:00
1 2019-07-15 05:00:00 Ts debe ser mayor o igual a Td Ts=7.3 - Td=7.4 2023-11-19 15:23:00
1 2019-07-21 09:00:00 Ts debe ser mayor o igual a Td Ts=5.7 - Td=5.8 2023-11-19 15:23:00
1 2019-08-15 13:00:00 Ts debe ser mayor o igual a Td Ts=8.3 - Td=8.4 2023-11-19 15:24:00
1 2019-08-17 09:00:00 Ts debe ser mayor o igual a Td Ts=9.0 - Td=9.1 2023-11-19 15:24:00
1 2019-08-19 15:00:00 Ts debe ser mayor o igual a Td Ts=8.3 - Td=8.4 2023-11-19 15:24:00
1 2019-08-24 13:00:00 Ts debe ser mayor o igual a Td Ts=8.7 - Td=8.8 2023-11-19 15:24:00
1 2019-09-06 14:00:00 Ts debe ser mayor o igual a Td Ts=9.2 - Td=9.3 2023-11-19 15:24:00
1 2019-10-01 05:00:00 Ts debe ser mayor o igual a Td Ts=4.3 - Td=5.0 2023-11-08 09:52:00
1 2019-10-01 11:00:00 Ts debe ser mayor o igual a Td Ts=2.3 - Td=3.9 2023-11-08 09:52:00
1 2019-10-01 12:00:00 Ts debe ser mayor o igual a Td Ts=4.1 - Td=7.1 2023-11-08 09:52:00
1 2019-10-02 07:00:00 Ts debe ser mayor o igual a Td Ts=5.9 - Td=6.3 2023-11-08 09:52:00
1 2019-10-02 09:00:00 Ts debe ser mayor o igual a Td Ts=6.2 - Td=6.4 2023-11-08 09:52:00
1 2019-10-02 12:00:00 Ts debe ser mayor o igual a Td Ts=6.0 - Td=6.4 2023-11-08 09:52:00
1 2019-10-02 13:00:00 Ts debe ser mayor o igual a Td Ts=6.5 - Td=7.1 2023-11-08 09:52:00
1 2019-10-02 14:00:00 Ts debe ser mayor o igual a Td Ts=7.2 - Td=11.6 2023-11-08 09:52:00
1 2019-10-03 11:00:00 Ts debe ser mayor o igual a Td Ts=3.3 - Td=4.1 2023-11-08 09:53:00
1 2019-10-03 12:00:00 Ts debe ser mayor o igual a Td Ts=4.5 - Td=9.7 2023-11-08 09:53:00
1 2019-10-04 12:00:00 Ts debe ser mayor o igual a Td Ts=4.6 - Td=7.0 2023-11-08 09:53:00
1 2019-10-05 12:00:00 Ts debe ser mayor o igual a Td Ts=4.9 - Td=5.5 2023-11-08 09:53:00
1 2019-10-06 12:00:00 Ts debe ser mayor o igual a Td Ts=8.4 - Td=8.7 2023-11-08 09:53:00
1 2019-10-06 13:00:00 Ts debe ser mayor o igual a Td Ts=10.1 - Td=10.5 2023-11-08 09:53:00
1 2019-10-07 12:00:00 Ts debe ser mayor o igual a Td Ts=7.3 - Td=11.3 2023-11-08 09:53:00
1 2019-10-08 12:00:00 Ts debe ser mayor o igual a Td Ts=6.4 - Td=7.5 2023-11-08 09:53:00
1 2019-10-11 11:00:00 Ts debe ser mayor o igual a Td Ts=7.4 - Td=8.1 2023-11-08 09:53:00
1 2019-10-11 12:00:00 Ts debe ser mayor o igual a Td Ts=8.5 - Td=10.1 2023-11-08 09:53:00
1 2019-10-11 13:00:00 Ts debe ser mayor o igual a Td Ts=10.8 - Td=12.6 2023-11-08 09:53:00
1 2019-10-12 11:00:00 Ts debe ser mayor o igual a Td Ts=7.3 - Td=7.8 2023-11-08 09:53:00
1 2019-10-12 12:00:00 Ts debe ser mayor o igual a Td Ts=8.2 - Td=10.8 2023-11-08 09:53:00
1 2019-10-12 13:00:00 Ts debe ser mayor o igual a Td Ts=11.6 - Td=12.0 2023-11-08 09:53:00
1 2019-10-14 11:00:00 Ts debe ser mayor o igual a Td Ts=8.9 - Td=9.3 2023-11-08 09:53:00
1 2019-10-15 12:00:00 Ts debe ser mayor o igual a Td Ts=11.9 - Td=13.4 2023-11-08 09:53:00
1 2019-10-16 11:00:00 Ts debe ser mayor o igual a Td Ts=2.6 - Td=4.5 2023-11-08 09:53:00
1 2019-10-16 12:00:00 Ts debe ser mayor o igual a Td Ts=4.6 - Td=10.9 2023-11-08 09:53:00
1 2019-10-18 12:00:00 Ts debe ser mayor o igual a Td Ts=8.2 - Td=8.9 2023-11-08 09:53:00
1 2019-10-19 11:00:00 Ts debe ser mayor o igual a Td Ts=5.3 - Td=7.8 2023-11-08 09:53:00
1 2019-10-19 12:00:00 Ts debe ser mayor o igual a Td Ts=8.3 - Td=12.0 2023-11-08 09:53:00
1 2019-10-23 11:00:00 Ts debe ser mayor o igual a Td Ts=5.4 - Td=7.9 2023-11-08 09:53:00
1 2019-10-24 11:00:00 Ts debe ser mayor o igual a Td Ts=8.0 - Td=9.0 2023-11-08 09:53:00
1 2019-10-24 12:00:00 Ts debe ser mayor o igual a Td Ts=9.9 - Td=12.4 2023-11-08 09:53:00
1 2019-10-25 11:00:00 Ts debe ser mayor o igual a Td Ts=2.7 - Td=4.4 2023-11-08 09:53:00
1 2019-10-25 12:00:00 Ts debe ser mayor o igual a Td Ts=4.6 - Td=11.1 2023-11-08 09:53:00
1 2019-10-26 11:00:00 Ts debe ser mayor o igual a Td Ts=11.3 - Td=12.3 2023-11-08 09:53:00
1 2019-10-26 12:00:00 Ts debe ser mayor o igual a Td Ts=13.0 - Td=13.2 2023-11-08 09:53:00
1 2019-10-27 11:00:00 Ts debe ser mayor o igual a Td Ts=11.4 - Td=11.8 2023-11-08 09:53:00
1 2019-10-27 12:00:00 Ts debe ser mayor o igual a Td Ts=12.0 - Td=12.3 2023-11-08 09:53:00
1 2019-10-27 13:00:00 Ts debe ser mayor o igual a Td Ts=12.5 - Td=13.1 2023-11-08 09:53:00
1 2019-10-28 11:00:00 Ts debe ser mayor o igual a Td Ts=3.3 - Td=6.0 2023-11-08 09:53:00
1 2019-10-28 12:00:00 Ts debe ser mayor o igual a Td Ts=6.2 - Td=13.2 2023-11-08 09:53:00
1 2019-10-28 23:00:00 Ts debe ser mayor o igual a Td Ts=9.8 - Td=9.9 2023-11-08 09:53:00
1 2019-10-29 02:00:00 Ts debe ser mayor o igual a Td Ts=9.4 - Td=9.7 2023-11-08 09:53:00
1 2019-10-29 03:00:00 Ts debe ser mayor o igual a Td Ts=9.8 - Td=10.0 2023-11-08 09:53:00
1 2019-10-29 04:00:00 Ts debe ser mayor o igual a Td Ts=10.1 - Td=10.5 2023-11-08 09:53:00
1 2019-10-29 07:00:00 HR (Humedad Relativa) es igual a 100% y Ts <> Td 9.0 - 8.7 2023-11-08 09:53:00
1 2019-10-29 09:00:00 HR (Humedad Relativa) es igual a 100% y Ts <> Td 8.7 - 7.7 2023-11-08 09:53:00
1 2019-10-29 11:00:00 Ts debe ser mayor o igual a Td Ts=7.6 - Td=10.9 2023-11-08 09:53:00
1 2019-10-29 11:00:00 HR (Humedad Relativa) es igual a 100% y Ts <> Td 7.6 - 10.9 2023-11-08 09:53:00
1 2019-10-29 12:00:00 Ts debe ser mayor o igual a Td Ts=10.9 - Td=12.7 2023-11-08 09:53:00
1 2019-10-29 13:00:00 Ts debe ser mayor o igual a Td Ts=12.9 - Td=14.8 2023-11-08 09:53:00
1 2019-10-29 15:00:00 Ts debe ser mayor o igual a Td Ts=13.0 - Td=13.5 2023-11-08 09:53:00
1 2019-10-30 10:00:00 Ts debe ser mayor o igual a Td Ts=3.1 - Td=5.5 2023-11-08 09:53:00
1 2019-10-30 11:00:00 Ts debe ser mayor o igual a Td Ts=5.5 - Td=6.5 2023-11-08 09:53:00
1 2019-10-30 12:00:00 Ts debe ser mayor o igual a Td Ts=6.6 - Td=9.2 2023-11-08 09:53:00
1 2019-10-30 13:00:00 Ts debe ser mayor o igual a Td Ts=9.4 - Td=12.0 2023-11-08 09:53:00
1 2019-10-31 11:00:00 Ts debe ser mayor o igual a Td Ts=4.4 - Td=7.7 2023-11-08 09:53:00
1 2019-10-31 12:00:00 Ts debe ser mayor o igual a Td Ts=8.2 - Td=10.9 2023-11-08 09:53:00
1 2019-11-01 10:00:00 Ts debe ser mayor o igual a Td Ts=7.8 - Td=8.0 2023-11-08 09:53:00
1 2019-11-01 11:00:00 Ts debe ser mayor o igual a Td Ts=8.5 - Td=10.4 2023-11-08 09:53:00
1 2019-11-01 12:00:00 Ts debe ser mayor o igual a Td Ts=11.9 - Td=12.4 2023-11-08 09:53:00
1 2019-11-01 15:00:00 Ts debe ser mayor o igual a Td Ts=12.9 - Td=14.2 2023-11-08 09:53:00
1 2019-11-01 17:00:00 Ts debe ser mayor o igual a Td Ts=14.1 - Td=14.6 2023-11-08 09:53:00
1 2019-11-02 11:00:00 Ts debe ser mayor o igual a Td Ts=7.9 - Td=8.5 2023-11-08 09:53:00
1 2019-11-03 11:00:00 Ts debe ser mayor o igual a Td Ts=7.3 - Td=8.8 2023-11-08 09:53:00
1 2019-11-04 12:00:00 Ts debe ser mayor o igual a Td Ts=11.3 - Td=12.1 2023-11-08 09:53:00
1 2019-11-04 14:00:00 Ts debe ser mayor o igual a Td Ts=13.2 - Td=14.6 2023-11-08 09:53:00
1 2019-11-06 11:00:00 Ts debe ser mayor o igual a Td Ts=8.1 - Td=9.3 2023-11-08 09:53:00
1 2019-11-07 11:00:00 Ts debe ser mayor o igual a Td Ts=9.0 - Td=10.6 2023-11-08 09:53:00
1 2019-11-12 11:00:00 Ts debe ser mayor o igual a Td Ts=10.4 - Td=13.5 2023-11-08 09:53:00
1 2019-11-14 11:00:00 Ts debe ser mayor o igual a Td Ts=12.9 - Td=13.2 2023-11-08 09:53:00
1 2019-11-15 10:00:00 Ts debe ser mayor o igual a Td Ts=12.1 - Td=12.3 2023-11-08 09:53:00
1 2019-11-15 11:00:00 Ts debe ser mayor o igual a Td Ts=12.6 - Td=15.8 2023-11-08 09:53:00
1 2019-11-15 12:00:00 Ts debe ser mayor o igual a Td Ts=17.1 - Td=18.5 2023-11-08 09:53:00
1 2019-11-16 11:00:00 Ts debe ser mayor o igual a Td Ts=13.1 - Td=15.1 2023-11-08 09:53:00
1 2019-11-16 12:00:00 Ts debe ser mayor o igual a Td Ts=15.9 - Td=16.1 2023-11-08 09:53:00
1 2019-11-17 11:00:00 Ts debe ser mayor o igual a Td Ts=6.9 - Td=11.2 2023-11-08 09:53:00
1 2019-11-17 12:00:00 Ts debe ser mayor o igual a Td Ts=12.2 - Td=14.5 2023-11-08 09:53:00
1 2019-11-20 10:00:00 Ts debe ser mayor o igual a Td Ts=11.3 - Td=11.8 2023-11-08 09:53:00
1 2019-11-20 11:00:00 Ts debe ser mayor o igual a Td Ts=12.2 - Td=15.2 2023-11-08 09:53:00
1 2019-11-23 10:00:00 Ts debe ser mayor o igual a Td Ts=9.7 - Td=10.6 2023-11-08 09:53:00
1 2019-11-23 11:00:00 Ts debe ser mayor o igual a Td Ts=11.4 - Td=12.0 2023-11-08 09:53:00
1 2019-11-24 11:00:00 Ts debe ser mayor o igual a Td Ts=9.0 - Td=14.7 2023-11-08 09:53:00
1 2019-11-24 16:00:00 Ts debe ser mayor o igual a Td Ts=15.0 - Td=15.5 2023-11-08 09:53:00
1 2019-11-25 11:00:00 Ts debe ser mayor o igual a Td Ts=9.4 - Td=10.5 2023-11-08 09:53:00
1 2019-11-26 11:00:00 Ts debe ser mayor o igual a Td Ts=2.2 - Td=6.9 2023-11-08 09:53:00
1 2019-11-27 11:00:00 Ts debe ser mayor o igual a Td Ts=7.6 - Td=8.5 2023-11-08 09:53:00
1 2019-11-29 11:00:00 Ts debe ser mayor o igual a Td Ts=10.1 - Td=12.9 2023-11-08 09:53:00
1 2019-11-29 12:00:00 Ts debe ser mayor o igual a Td Ts=14.1 - Td=15.2 2023-11-08 09:53:00
1 2019-11-30 11:00:00 Ts debe ser mayor o igual a Td Ts=8.1 - Td=8.7 2023-11-08 09:53:00
1 2019-12-11 11:00:00 Ts debe ser mayor o igual a Td Ts=12.0 - Td=12.7 2023-11-08 09:54:00
1 2019-12-14 08:00:00 Ts debe ser mayor o igual a Td Ts=10.7 - Td=11.5 2023-11-08 09:54:00
1 2019-12-14 10:00:00 Ts debe ser mayor o igual a Td Ts=11.2 - Td=11.4 2023-11-08 09:54:00
1 2019-12-14 11:00:00 Ts debe ser mayor o igual a Td Ts=12.0 - Td=14.2 2023-11-08 09:54:00
Errores del Nivel 351
Nivel Fecha del Dato Descripción Información Error Fecha Ingreso
2 2020-01-23 12:00:00 Temperatura 13.2 del 23-01-2020 06:00, Menor que la Mínima 13.9 23-01-2020 12:00 13.2 -- 13.9 2020-02-10 19:50:00
Errores del Nivel 1
Informe generado el 23-07-2024 18:49
Requerimiento: RE6001